sensor_id;sensor_type;location;lat;lon;timestamp;P1;durP1;ratioP1;P2;durP2;ratioP2
28266;SDS011;15525;45.568;5.448;2023-03-09T00:00:54;19.50;;;11.65;;
28266;SDS011;15525;45.568;5.448;2023-03-09T00:03:20;19.08;;;10.82;;
28266;SDS011;15525;45.568;5.448;2023-03-09T00:05:56;21.38;;;12.23;;
28266;SDS011;15525;45.568;5.448;2023-03-09T00:08:23;19.33;;;12.18;;
28266;SDS011;15525;45.568;5.448;2023-03-09T00:10:49;20.85;;;12.25;;
28266;SDS011;15525;45.568;5.448;2023-03-09T00:13:17;22.98;;;12.45;;
28266;SDS011;15525;45.568;5.448;2023-03-09T00:15:43;21.85;;;12.57;;
28266;SDS011;15525;45.568;5.448;2023-03-09T00:18:14;22.42;;;12.98;;
28266;SDS011;15525;45.568;5.448;2023-03-09T00:20:41;20.63;;;12.40;;
28266;SDS011;15525;45.568;5.448;2023-03-09T00:23:07;22.42;;;12.57;;
28266;SDS011;15525;45.568;5.448;2023-03-09T00:25:35;19.73;;;12.10;;
28266;SDS011;15525;45.568;5.448;2023-03-09T00:28:00;20.40;;;12.18;;
28266;SDS011;15525;45.568;5.448;2023-03-09T00:30:25;20.38;;;11.88;;
28266;SDS011;15525;45.568;5.448;2023-03-09T00:32:52;19.35;;;11.70;;
28266;SDS011;15525;45.568;5.448;2023-03-09T00:35:18;19.48;;;12.00;;
28266;SDS011;15525;45.568;5.448;2023-03-09T00:37:43;20.10;;;11.65;;
28266;SDS011;15525;45.568;5.448;2023-03-09T00:40:09;18.15;;;11.43;;
28266;SDS011;15525;45.568;5.448;2023-03-09T00:42:38;17.20;;;10.63;;
28266;SDS011;15525;45.568;5.448;2023-03-09T00:45:06;17.08;;;11.00;;
28266;SDS011;15525;45.568;5.448;2023-03-09T00:47:32;15.15;;;10.48;;
28266;SDS011;15525;45.568;5.448;2023-03-09T00:49:57;18.10;;;10.70;;
28266;SDS011;15525;45.568;5.448;2023-03-09T00:52:23;18.40;;;10.70;;
28266;SDS011;15525;45.568;5.448;2023-03-09T00:54:48;19.60;;;10.95;;
28266;SDS011;15525;45.568;5.448;2023-03-09T00:57:18;16.42;;;10.05;;
28266;SDS011;15525;45.568;5.448;2023-03-09T00:59:46;18.30;;;10.77;;
28266;SDS011;15525;45.568;5.448;2023-03-09T01:02:12;17.80;;;10.40;;
28266;SDS011;15525;45.568;5.448;2023-03-09T01:04:38;19.77;;;10.93;;
28266;SDS011;15525;45.568;5.448;2023-03-09T01:07:03;16.80;;;10.05;;
28266;SDS011;15525;45.568;5.448;2023-03-09T01:09:29;19.00;;;9.95;;
28266;SDS011;15525;45.568;5.448;2023-03-09T01:11:54;16.17;;;10.63;;
28266;SDS011;15525;45.568;5.448;2023-03-09T01:14:20;16.05;;;9.00;;
28266;SDS011;15525;45.568;5.448;2023-03-09T01:16:45;13.80;;;8.80;;
28266;SDS011;15525;45.568;5.448;2023-03-09T01:19:11;13.00;;;7.88;;
28266;SDS011;15525;45.568;5.448;2023-03-09T01:21:36;13.40;;;8.23;;
28266;SDS011;15525;45.568;5.448;2023-03-09T01:24:02;15.57;;;8.35;;
28266;SDS011;15525;45.568;5.448;2023-03-09T01:26:27;15.52;;;8.63;;
28266;SDS011;15525;45.568;5.448;2023-03-09T01:28:53;12.80;;;7.78;;
28266;SDS011;15525;45.568;5.448;2023-03-09T01:31:18;15.57;;;8.00;;
28266;SDS011;15525;45.568;5.448;2023-03-09T01:33:44;12.25;;;7.90;;
28266;SDS011;15525;45.568;5.448;2023-03-09T01:36:14;15.32;;;8.60;;
28266;SDS011;15525;45.568;5.448;2023-03-09T01:38:41;14.05;;;8.38;;
28266;SDS011;15525;45.568;5.448;2023-03-09T01:41:09;13.52;;;8.50;;
28266;SDS011;15525;45.568;5.448;2023-03-09T01:43:37;13.35;;;7.88;;
28266;SDS011;15525;45.568;5.448;2023-03-09T01:49:05;11.57;;;7.70;;
28266;SDS011;15525;45.568;5.448;2023-03-09T01:51:43;13.90;;;7.97;;
28266;SDS011;15525;45.568;5.448;2023-03-09T01:54:26;12.15;;;7.20;;
28266;SDS011;15525;45.568;5.448;2023-03-09T01:56:57;13.02;;;7.38;;
28266;SDS011;15525;45.568;5.448;2023-03-09T01:59:28;12.38;;;7.03;;
28266;SDS011;15525;45.568;5.448;2023-03-09T02:01:57;11.13;;;7.30;;
28266;SDS011;15525;45.568;5.448;2023-03-09T02:04:26;11.80;;;7.15;;
28266;SDS011;15525;45.568;5.448;2023-03-09T02:06:57;11.98;;;6.95;;
28266;SDS011;15525;45.568;5.448;2023-03-09T02:09:29;13.38;;;7.28;;
28266;SDS011;15525;45.568;5.448;2023-03-09T02:11:59;13.85;;;7.70;;
28266;SDS011;15525;45.568;5.448;2023-03-09T02:14:25;11.77;;;6.95;;
28266;SDS011;15525;45.568;5.448;2023-03-09T02:16:52;10.55;;;6.43;;
28266;SDS011;15525;45.568;5.448;2023-03-09T02:19:24;11.40;;;6.35;;
28266;SDS011;15525;45.568;5.448;2023-03-09T02:21:58;10.23;;;6.55;;
28266;SDS011;15525;45.568;5.448;2023-03-09T02:27:26;10.38;;;6.15;;
28266;SDS011;15525;45.568;5.448;2023-03-09T02:29:53;12.98;;;6.22;;
28266;SDS011;15525;45.568;5.448;2023-03-09T02:32:20;11.52;;;7.00;;
28266;SDS011;15525;45.568;5.448;2023-03-09T02:34:46;12.15;;;6.57;;
28266;SDS011;15525;45.568;5.448;2023-03-09T02:40:43;10.80;;;6.70;;
28266;SDS011;15525;45.568;5.448;2023-03-09T02:42:52;11.87;;;6.57;;
28266;SDS011;15525;45.568;5.448;2023-03-09T02:45:18;11.63;;;6.60;;
28266;SDS011;15525;45.568;5.448;2023-03-09T02:47:46;10.95;;;6.70;;
28266;SDS011;15525;45.568;5.448;2023-03-09T02:50:12;10.57;;;6.80;;
28266;SDS011;15525;45.568;5.448;2023-03-09T02:52:38;12.93;;;6.97;;
28266;SDS011;15525;45.568;5.448;2023-03-09T02:55:04;11.10;;;6.35;;
28266;SDS011;15525;45.568;5.448;2023-03-09T02:57:30;11.65;;;6.72;;
28266;SDS011;15525;45.568;5.448;2023-03-09T02:59:56;12.30;;;6.57;;
28266;SDS011;15525;45.568;5.448;2023-03-09T03:02:21;13.13;;;7.18;;
28266;SDS011;15525;45.568;5.448;2023-03-09T03:04:46;14.23;;;7.00;;
28266;SDS011;15525;45.568;5.448;2023-03-09T03:07:12;10.80;;;6.70;;
28266;SDS011;15525;45.568;5.448;2023-03-09T03:09:37;12.90;;;6.80;;
28266;SDS011;15525;45.568;5.448;2023-03-09T03:12:03;14.32;;;6.97;;
28266;SDS011;15525;45.568;5.448;2023-03-09T03:14:28;12.27;;;6.93;;
28266;SDS011;15525;45.568;5.448;2023-03-09T03:16:54;14.48;;;6.20;;
28266;SDS011;15525;45.568;5.448;2023-03-09T03:19:20;11.75;;;6.35;;
28266;SDS011;15525;45.568;5.448;2023-03-09T03:21:45;11.52;;;6.97;;
28266;SDS011;15525;45.568;5.448;2023-03-09T03:24:12;12.43;;;6.32;;
28266;SDS011;15525;45.568;5.448;2023-03-09T03:26:38;11.65;;;6.65;;
28266;SDS011;15525;45.568;5.448;2023-03-09T03:29:03;14.38;;;6.90;;
28266;SDS011;15525;45.568;5.448;2023-03-09T03:31:29;10.18;;;6.57;;
28266;SDS011;15525;45.568;5.448;2023-03-09T03:33:54;13.65;;;6.53;;
28266;SDS011;15525;45.568;5.448;2023-03-09T03:36:19;12.18;;;6.80;;
28266;SDS011;15525;45.568;5.448;2023-03-09T03:38:45;12.55;;;6.55;;
28266;SDS011;15525;45.568;5.448;2023-03-09T03:41:10;12.65;;;7.40;;
28266;SDS011;15525;45.568;5.448;2023-03-09T03:43:36;13.45;;;7.10;;
28266;SDS011;15525;45.568;5.448;2023-03-09T03:46:01;11.10;;;6.57;;
28266;SDS011;15525;45.568;5.448;2023-03-09T03:48:26;11.45;;;6.50;;
28266;SDS011;15525;45.568;5.448;2023-03-09T03:50:52;12.38;;;6.50;;
28266;SDS011;15525;45.568;5.448;2023-03-09T03:53:17;14.00;;;6.75;;
28266;SDS011;15525;45.568;5.448;2023-03-09T03:55:43;11.52;;;6.90;;
28266;SDS011;15525;45.568;5.448;2023-03-09T03:58:08;14.68;;;7.40;;
28266;SDS011;15525;45.568;5.448;2023-03-09T04:00:34;15.82;;;7.32;;
28266;SDS011;15525;45.568;5.448;2023-03-09T04:02:59;14.30;;;7.32;;
28266;SDS011;15525;45.568;5.448;2023-03-09T04:05:25;13.48;;;7.00;;
28266;SDS011;15525;45.568;5.448;2023-03-09T04:07:50;11.43;;;6.65;;
28266;SDS011;15525;45.568;5.448;2023-03-09T04:10:16;11.77;;;6.75;;
28266;SDS011;15525;45.568;5.448;2023-03-09T04:12:42;13.18;;;6.60;;
28266;SDS011;15525;45.568;5.448;2023-03-09T04:15:08;10.52;;;6.53;;
28266;SDS011;15525;45.568;5.448;2023-03-09T04:17:34;12.35;;;7.47;;
28266;SDS011;15525;45.568;5.448;2023-03-09T04:19:59;11.45;;;6.88;;
28266;SDS011;15525;45.568;5.448;2023-03-09T04:22:25;11.70;;;7.13;;
28266;SDS011;15525;45.568;5.448;2023-03-09T04:24:50;14.88;;;6.95;;
28266;SDS011;15525;45.568;5.448;2023-03-09T04:27:16;14.68;;;7.50;;
28266;SDS011;15525;45.568;5.448;2023-03-09T04:29:42;12.02;;;7.25;;
28266;SDS011;15525;45.568;5.448;2023-03-09T04:32:07;12.57;;;7.03;;
28266;SDS011;15525;45.568;5.448;2023-03-09T04:34:33;10.43;;;6.78;;
28266;SDS011;15525;45.568;5.448;2023-03-09T04:36:58;11.52;;;7.32;;
28266;SDS011;15525;45.568;5.448;2023-03-09T04:39:23;15.63;;;7.53;;
28266;SDS011;15525;45.568;5.448;2023-03-09T04:41:49;12.93;;;7.30;;
28266;SDS011;15525;45.568;5.448;2023-03-09T04:44:14;14.70;;;7.45;;
28266;SDS011;15525;45.568;5.448;2023-03-09T04:46:40;11.43;;;7.13;;
28266;SDS011;15525;45.568;5.448;2023-03-09T04:49:05;15.32;;;8.32;;
28266;SDS011;15525;45.568;5.448;2023-03-09T04:51:31;12.63;;;7.53;;
28266;SDS011;15525;45.568;5.448;2023-03-09T04:53:56;13.70;;;7.65;;
28266;SDS011;15525;45.568;5.448;2023-03-09T04:56:22;14.07;;;7.40;;
28266;SDS011;15525;45.568;5.448;2023-03-09T04:58:47;13.40;;;8.25;;
28266;SDS011;15525;45.568;5.448;2023-03-09T05:01:13;13.13;;;7.18;;
28266;SDS011;15525;45.568;5.448;2023-03-09T05:03:39;14.30;;;7.35;;
28266;SDS011;15525;45.568;5.448;2023-03-09T05:06:04;15.23;;;7.72;;
28266;SDS011;15525;45.568;5.448;2023-03-09T05:08:30;13.77;;;7.60;;
28266;SDS011;15525;45.568;5.448;2023-03-09T05:10:55;11.20;;;7.18;;
28266;SDS011;15525;45.568;5.448;2023-03-09T05:13:20;13.63;;;6.93;;
28266;SDS011;15525;45.568;5.448;2023-03-09T05:15:46;12.18;;;7.03;;
28266;SDS011;15525;45.568;5.448;2023-03-09T05:18:11;12.52;;;6.85;;
28266;SDS011;15525;45.568;5.448;2023-03-09T05:20:37;12.15;;;7.15;;
28266;SDS011;15525;45.568;5.448;2023-03-09T05:23:03;14.35;;;7.25;;
28266;SDS011;15525;45.568;5.448;2023-03-09T05:25:29;13.85;;;7.38;;
28266;SDS011;15525;45.568;5.448;2023-03-09T05:27:55;13.73;;;7.57;;
28266;SDS011;15525;45.568;5.448;2023-03-09T05:30:21;16.13;;;7.72;;
28266;SDS011;15525;45.568;5.448;2023-03-09T05:32:46;18.45;;;7.78;;
28266;SDS011;15525;45.568;5.448;2023-03-09T05:35:13;15.90;;;7.97;;
28266;SDS011;15525;45.568;5.448;2023-03-09T05:37:39;16.67;;;7.80;;
28266;SDS011;15525;45.568;5.448;2023-03-09T05:40:05;18.63;;;8.32;;
28266;SDS011;15525;45.568;5.448;2023-03-09T05:42:31;14.02;;;7.60;;
28266;SDS011;15525;45.568;5.448;2023-03-09T05:44:56;20.65;;;11.15;;
28266;SDS011;15525;45.568;5.448;2023-03-09T05:47:22;21.55;;;10.55;;
28266;SDS011;15525;45.568;5.448;2023-03-09T05:49:48;21.60;;;12.52;;
28266;SDS011;15525;45.568;5.448;2023-03-09T05:52:14;26.27;;;13.23;;
28266;SDS011;15525;45.568;5.448;2023-03-09T05:54:40;23.05;;;12.20;;
28266;SDS011;15525;45.568;5.448;2023-03-09T05:57:05;22.48;;;11.60;;
28266;SDS011;15525;45.568;5.448;2023-03-09T05:59:31;21.52;;;10.82;;
28266;SDS011;15525;45.568;5.448;2023-03-09T06:01:56;22.88;;;11.52;;
28266;SDS011;15525;45.568;5.448;2023-03-09T06:04:22;20.65;;;11.02;;
28266;SDS011;15525;45.568;5.448;2023-03-09T06:06:47;22.30;;;10.35;;
28266;SDS011;15525;45.568;5.448;2023-03-09T06:09:12;16.33;;;8.63;;
28266;SDS011;15525;45.568;5.448;2023-03-09T06:11:38;19.67;;;9.20;;
28266;SDS011;15525;45.568;5.448;2023-03-09T06:14:03;19.80;;;9.52;;
28266;SDS011;15525;45.568;5.448;2023-03-09T06:16:29;19.77;;;9.73;;
28266;SDS011;15525;45.568;5.448;2023-03-09T06:18:55;16.52;;;8.93;;
28266;SDS011;15525;45.568;5.448;2023-03-09T06:21:20;15.95;;;8.82;;
28266;SDS011;15525;45.568;5.448;2023-03-09T06:23:46;15.40;;;8.68;;
28266;SDS011;15525;45.568;5.448;2023-03-09T06:26:12;18.23;;;9.50;;
28266;SDS011;15525;45.568;5.448;2023-03-09T06:28:38;20.65;;;11.38;;
28266;SDS011;15525;45.568;5.448;2023-03-09T06:31:08;21.45;;;10.30;;
28266;SDS011;15525;45.568;5.448;2023-03-09T06:33:37;20.83;;;10.27;;
28266;SDS011;15525;45.568;5.448;2023-03-09T06:36:03;19.13;;;11.13;;
28266;SDS011;15525;45.568;5.448;2023-03-09T06:38:29;28.77;;;14.00;;
28266;SDS011;15525;45.568;5.448;2023-03-09T06:40:54;27.58;;;15.77;;
28266;SDS011;15525;45.568;5.448;2023-03-09T06:43:20;27.27;;;15.10;;
28266;SDS011;15525;45.568;5.448;2023-03-09T06:45:46;19.63;;;11.00;;
28266;SDS011;15525;45.568;5.448;2023-03-09T06:48:11;18.58;;;10.98;;
28266;SDS011;15525;45.568;5.448;2023-03-09T06:50:37;20.40;;;10.65;;
28266;SDS011;15525;45.568;5.448;2023-03-09T06:53:03;21.58;;;10.38;;
28266;SDS011;15525;45.568;5.448;2023-03-09T06:55:28;22.67;;;11.38;;
28266;SDS011;15525;45.568;5.448;2023-03-09T06:57:54;18.70;;;10.55;;
28266;SDS011;15525;45.568;5.448;2023-03-09T07:00:19;19.63;;;9.35;;
28266;SDS011;15525;45.568;5.448;2023-03-09T07:02:45;20.08;;;10.80;;
28266;SDS011;15525;45.568;5.448;2023-03-09T07:05:11;17.48;;;9.20;;
28266;SDS011;15525;45.568;5.448;2023-03-09T07:07:37;18.50;;;10.50;;
28266;SDS011;15525;45.568;5.448;2023-03-09T07:10:03;21.40;;;12.40;;
28266;SDS011;15525;45.568;5.448;2023-03-09T07:12:30;18.83;;;10.93;;
28266;SDS011;15525;45.568;5.448;2023-03-09T07:14:56;19.33;;;10.52;;
28266;SDS011;15525;45.568;5.448;2023-03-09T07:17:21;22.08;;;10.43;;
28266;SDS011;15525;45.568;5.448;2023-03-09T07:19:47;18.50;;;9.85;;
28266;SDS011;15525;45.568;5.448;2023-03-09T07:22:12;18.75;;;10.52;;
28266;SDS011;15525;45.568;5.448;2023-03-09T07:24:38;14.20;;;9.60;;
28266;SDS011;15525;45.568;5.448;2023-03-09T07:27:07;20.08;;;10.13;;
28266;SDS011;15525;45.568;5.448;2023-03-09T07:29:32;20.88;;;10.63;;
28266;SDS011;15525;45.568;5.448;2023-03-09T07:32:00;20.05;;;11.13;;
28266;SDS011;15525;45.568;5.448;2023-03-09T07:34:27;17.35;;;9.95;;
28266;SDS011;15525;45.568;5.448;2023-03-09T07:36:52;20.42;;;10.52;;
28266;SDS011;15525;45.568;5.448;2023-03-09T07:39:17;18.13;;;10.55;;
28266;SDS011;15525;45.568;5.448;2023-03-09T07:41:43;23.17;;;10.75;;
28266;SDS011;15525;45.568;5.448;2023-03-09T07:44:09;21.95;;;10.23;;
28266;SDS011;15525;45.568;5.448;2023-03-09T07:46:34;14.65;;;8.85;;
28266;SDS011;15525;45.568;5.448;2023-03-09T07:48:59;17.33;;;10.13;;
28266;SDS011;15525;45.568;5.448;2023-03-09T07:51:25;15.63;;;9.73;;
28266;SDS011;15525;45.568;5.448;2023-03-09T07:53:50;17.13;;;9.75;;
28266;SDS011;15525;45.568;5.448;2023-03-09T07:56:16;18.88;;;9.68;;
28266;SDS011;15525;45.568;5.448;2023-03-09T07:58:42;19.35;;;8.80;;
28266;SDS011;15525;45.568;5.448;2023-03-09T08:01:12;17.58;;;9.20;;
28266;SDS011;15525;45.568;5.448;2023-03-09T08:03:42;16.20;;;8.55;;
28266;SDS011;15525;45.568;5.448;2023-03-09T08:06:08;16.60;;;8.68;;
28266;SDS011;15525;45.568;5.448;2023-03-09T08:08:35;18.23;;;8.70;;
28266;SDS011;15525;45.568;5.448;2023-03-09T08:11:01;10.23;;;5.53;;
28266;SDS011;15525;45.568;5.448;2023-03-09T08:13:28;10.40;;;5.50;;
28266;SDS011;15525;45.568;5.448;2023-03-09T08:15:54;8.68;;;5.65;;
28266;SDS011;15525;45.568;5.448;2023-03-09T08:18:20;9.95;;;4.75;;
28266;SDS011;15525;45.568;5.448;2023-03-09T08:20:45;9.73;;;4.63;;
28266;SDS011;15525;45.568;5.448;2023-03-09T08:23:11;8.60;;;4.30;;
28266;SDS011;15525;45.568;5.448;2023-03-09T08:25:37;7.80;;;4.32;;
28266;SDS011;15525;45.568;5.448;2023-03-09T08:28:03;10.30;;;4.07;;
28266;SDS011;15525;45.568;5.448;2023-03-09T08:30:29;7.95;;;4.28;;
28266;SDS011;15525;45.568;5.448;2023-03-09T08:32:54;7.80;;;4.10;;
28266;SDS011;15525;45.568;5.448;2023-03-09T08:35:21;8.38;;;4.40;;
28266;SDS011;15525;45.568;5.448;2023-03-09T08:37:49;6.03;;;4.40;;
28266;SDS011;15525;45.568;5.448;2023-03-09T08:40:14;7.10;;;4.30;;
28266;SDS011;15525;45.568;5.448;2023-03-09T08:42:41;7.03;;;3.63;;
28266;SDS011;15525;45.568;5.448;2023-03-09T08:45:07;5.85;;;3.00;;
28266;SDS011;15525;45.568;5.448;2023-03-09T08:47:33;5.68;;;3.30;;
28266;SDS011;15525;45.568;5.448;2023-03-09T08:49:59;5.45;;;3.10;;
28266;SDS011;15525;45.568;5.448;2023-03-09T08:52:24;5.18;;;3.00;;
28266;SDS011;15525;45.568;5.448;2023-03-09T08:54:50;6.88;;;3.22;;
28266;SDS011;15525;45.568;5.448;2023-03-09T08:57:16;6.72;;;3.63;;
28266;SDS011;15525;45.568;5.448;2023-03-09T08:59:42;6.90;;;3.80;;
28266;SDS011;15525;45.568;5.448;2023-03-09T09:02:11;6.35;;;3.83;;
28266;SDS011;15525;45.568;5.448;2023-03-09T09:04:42;8.65;;;4.40;;
28266;SDS011;15525;45.568;5.448;2023-03-09T09:07:09;7.35;;;4.32;;
28266;SDS011;15525;45.568;5.448;2023-03-09T09:09:36;8.60;;;4.38;;
28266;SDS011;15525;45.568;5.448;2023-03-09T09:12:02;7.47;;;4.70;;
28266;SDS011;15525;45.568;5.448;2023-03-09T09:14:28;9.02;;;5.03;;
28266;SDS011;15525;45.568;5.448;2023-03-09T09:16:53;8.85;;;4.93;;
28266;SDS011;15525;45.568;5.448;2023-03-09T09:19:19;10.68;;;4.90;;
28266;SDS011;15525;45.568;5.448;2023-03-09T09:21:44;11.20;;;5.50;;
28266;SDS011;15525;45.568;5.448;2023-03-09T09:24:10;8.85;;;5.20;;
28266;SDS011;15525;45.568;5.448;2023-03-09T09:26:35;8.07;;;5.10;;
28266;SDS011;15525;45.568;5.448;2023-03-09T09:29:01;11.68;;;5.53;;
28266;SDS011;15525;45.568;5.448;2023-03-09T09:31:27;8.65;;;4.75;;
28266;SDS011;15525;45.568;5.448;2023-03-09T09:33:53;7.30;;;4.80;;
28266;SDS011;15525;45.568;5.448;2023-03-09T09:36:19;10.25;;;5.03;;
28266;SDS011;15525;45.568;5.448;2023-03-09T09:38:45;13.40;;;5.25;;
28266;SDS011;15525;45.568;5.448;2023-03-09T09:44:03;11.38;;;5.97;;
28266;SDS011;15525;45.568;5.448;2023-03-09T09:46:33;10.70;;;5.60;;
28266;SDS011;15525;45.568;5.448;2023-03-09T09:49:00;11.18;;;5.57;;
28266;SDS011;15525;45.568;5.448;2023-03-09T09:56:46;10.70;;;5.57;;
28266;SDS011;15525;45.568;5.448;2023-03-09T09:59:33;9.10;;;5.00;;
28266;SDS011;15525;45.568;5.448;2023-03-09T10:02:15;8.07;;;5.07;;
28266;SDS011;15525;45.568;5.448;2023-03-09T10:05:04;9.02;;;5.00;;
28266;SDS011;15525;45.568;5.448;2023-03-09T10:07:37;10.80;;;5.68;;
28266;SDS011;15525;45.568;5.448;2023-03-09T10:10:04;10.18;;;4.90;;
28266;SDS011;15525;45.568;5.448;2023-03-09T10:12:35;9.75;;;5.47;;
28266;SDS011;15525;45.568;5.448;2023-03-09T10:17:45;11.25;;;5.70;;
28266;SDS011;15525;45.568;5.448;2023-03-09T10:20:22;9.68;;;5.07;;
28266;SDS011;15525;45.568;5.448;2023-03-09T10:22:52;10.23;;;5.47;;
28266;SDS011;15525;45.568;5.448;2023-03-09T10:25:20;11.00;;;5.97;;
28266;SDS011;15525;45.568;5.448;2023-03-09T10:27:53;9.30;;;5.30;;
28266;SDS011;15525;45.568;5.448;2023-03-09T10:33:16;9.02;;;5.00;;
28266;SDS011;15525;45.568;5.448;2023-03-09T10:35:53;9.35;;;5.03;;
28266;SDS011;15525;45.568;5.448;2023-03-09T10:38:20;9.10;;;5.35;;
28266;SDS011;15525;45.568;5.448;2023-03-09T10:40:49;8.68;;;5.28;;
28266;SDS011;15525;45.568;5.448;2023-03-09T10:43:19;11.43;;;5.53;;
28266;SDS011;15525;45.568;5.448;2023-03-09T10:45:47;10.07;;;5.35;;
28266;SDS011;15525;45.568;5.448;2023-03-09T10:48:23;9.38;;;5.70;;
28266;SDS011;15525;45.568;5.448;2023-03-09T10:51:00;8.18;;;5.22;;
28266;SDS011;15525;45.568;5.448;2023-03-09T10:53:32;8.27;;;5.43;;
28266;SDS011;15525;45.568;5.448;2023-03-09T10:58:47;9.40;;;5.57;;
28266;SDS011;15525;45.568;5.448;2023-03-09T11:01:37;8.25;;;5.95;;
28266;SDS011;15525;45.568;5.448;2023-03-09T11:04:24;9.38;;;5.20;;
28266;SDS011;15525;45.568;5.448;2023-03-09T11:07:02;9.48;;;5.00;;
28266;SDS011;15525;45.568;5.448;2023-03-09T11:09:48;8.95;;;5.32;;
28266;SDS011;15525;45.568;5.448;2023-03-09T11:19:51;11.32;;;6.20;;
28266;SDS011;15525;45.568;5.448;2023-03-09T11:31:13;11.35;;;6.47;;
28266;SDS011;15525;45.568;5.448;2023-03-09T11:33:42;11.13;;;6.15;;
28266;SDS011;15525;45.568;5.448;2023-03-09T11:36:13;10.27;;;5.85;;
28266;SDS011;15525;45.568;5.448;2023-03-09T11:38:43;11.02;;;5.97;;
28266;SDS011;15525;45.568;5.448;2023-03-09T11:43:41;10.88;;;6.85;;
28266;SDS011;15525;45.568;5.448;2023-03-09T11:46:13;11.45;;;6.07;;
28266;SDS011;15525;45.568;5.448;2023-03-09T11:48:41;13.77;;;6.97;;
28266;SDS011;15525;45.568;5.448;2023-03-09T11:51:13;8.77;;;5.78;;
28266;SDS011;15525;45.568;5.448;2023-03-09T11:56:39;9.75;;;5.43;;
28266;SDS011;15525;45.568;5.448;2023-03-09T11:59:13;8.65;;;5.50;;
28266;SDS011;15525;45.568;5.448;2023-03-09T12:04:38;10.60;;;5.47;;
28266;SDS011;15525;45.568;5.448;2023-03-09T12:12:39;9.23;;;4.60;;
28266;SDS011;15525;45.568;5.448;2023-03-09T12:15:17;8.73;;;4.93;;
28266;SDS011;15525;45.568;5.448;2023-03-09T12:17:57;8.48;;;4.65;;
28266;SDS011;15525;45.568;5.448;2023-03-09T12:20:26;8.73;;;4.60;;
28266;SDS011;15525;45.568;5.448;2023-03-09T12:22:56;7.80;;;4.07;;
28266;SDS011;15525;45.568;5.448;2023-03-09T12:25:22;8.93;;;4.20;;
28266;SDS011;15525;45.568;5.448;2023-03-09T12:27:54;7.38;;;3.80;;
28266;SDS011;15525;45.568;5.448;2023-03-09T12:32:49;7.57;;;3.35;;
28266;SDS011;15525;45.568;5.448;2023-03-09T12:42:40;8.32;;;3.35;;
28266;SDS011;15525;45.568;5.448;2023-03-09T12:47:46;6.30;;;3.50;;
28266;SDS011;15525;45.568;5.448;2023-03-09T12:55:57;7.25;;;2.80;;
28266;SDS011;15525;45.568;5.448;2023-03-09T12:58:32;7.50;;;2.50;;
28266;SDS011;15525;45.568;5.448;2023-03-09T13:03:30;6.43;;;2.20;;
28266;SDS011;15525;45.568;5.448;2023-03-09T13:06:02;5.65;;;2.25;;
28266;SDS011;15525;45.568;5.448;2023-03-09T13:08:32;5.88;;;2.30;;
28266;SDS011;15525;45.568;5.448;2023-03-09T13:11:19;4.75;;;2.10;;
28266;SDS011;15525;45.568;5.448;2023-03-09T13:14:00;7.63;;;2.60;;
28266;SDS011;15525;45.568;5.448;2023-03-09T13:24:21;6.60;;;2.50;;
28266;SDS011;15525;45.568;5.448;2023-03-09T13:27:09;6.97;;;2.67;;
28266;SDS011;15525;45.568;5.448;2023-03-09T13:30:07;5.80;;;2.40;;
28266;SDS011;15525;45.568;5.448;2023-03-09T13:32:48;6.97;;;2.88;;
28266;SDS011;15525;45.568;5.448;2023-03-09T13:35:27;6.95;;;2.70;;
28266;SDS011;15525;45.568;5.448;2023-03-09T13:38:05;6.60;;;2.60;;
28266;SDS011;15525;45.568;5.448;2023-03-09T13:40:47;8.13;;;2.70;;
28266;SDS011;15525;45.568;5.448;2023-03-09T13:43:16;6.25;;;2.88;;
28266;SDS011;15525;45.568;5.448;2023-03-09T13:45:58;6.82;;;2.97;;
28266;SDS011;15525;45.568;5.448;2023-03-09T13:48:27;5.78;;;2.72;;
28266;SDS011;15525;45.568;5.448;2023-03-09T13:50:54;7.72;;;2.85;;
28266;SDS011;15525;45.568;5.448;2023-03-09T13:53:22;5.50;;;2.58;;
28266;SDS011;15525;45.568;5.448;2023-03-09T13:55:59;7.50;;;2.90;;
28266;SDS011;15525;45.568;5.448;2023-03-09T13:58:29;7.38;;;2.60;;
28266;SDS011;15525;45.568;5.448;2023-03-09T14:01:02;7.10;;;3.05;;
28266;SDS011;15525;45.568;5.448;2023-03-09T14:03:30;7.65;;;2.60;;
28266;SDS011;15525;45.568;5.448;2023-03-09T14:08:29;8.68;;;2.78;;
28266;SDS011;15525;45.568;5.448;2023-03-09T14:11:03;4.97;;;2.40;;
28266;SDS011;15525;45.568;5.448;2023-03-09T14:13:31;6.65;;;2.53;;
28266;SDS011;15525;45.568;5.448;2023-03-09T14:15:58;9.70;;;2.60;;
28266;SDS011;15525;45.568;5.448;2023-03-09T14:21:01;5.57;;;2.60;;
28266;SDS011;15525;45.568;5.448;2023-03-09T14:23:32;7.60;;;2.78;;
28266;SDS011;15525;45.568;5.448;2023-03-09T14:26:02;6.10;;;2.13;;
28266;SDS011;15525;45.568;5.448;2023-03-09T14:28:29;6.13;;;2.50;;
28266;SDS011;15525;45.568;5.448;2023-03-09T14:31:13;7.63;;;2.58;;
28266;SDS011;15525;45.568;5.448;2023-03-09T14:33:53;5.43;;;2.30;;
28266;SDS011;15525;45.568;5.448;2023-03-09T14:36:20;4.53;;;1.95;;
28266;SDS011;15525;45.568;5.448;2023-03-09T14:38:52;4.90;;;2.17;;
28266;SDS011;15525;45.568;5.448;2023-03-09T14:41:24;4.63;;;2.10;;
28266;SDS011;15525;45.568;5.448;2023-03-09T14:43:53;6.07;;;1.95;;
28266;SDS011;15525;45.568;5.448;2023-03-09T14:46:21;4.30;;;1.88;;
28266;SDS011;15525;45.568;5.448;2023-03-09T14:48:52;6.57;;;2.03;;
28266;SDS011;15525;45.568;5.448;2023-03-09T14:51:22;4.80;;;2.05;;
28266;SDS011;15525;45.568;5.448;2023-03-09T14:53:54;7.88;;;2.50;;
28266;SDS011;15525;45.568;5.448;2023-03-09T14:56:21;6.00;;;2.20;;
28266;SDS011;15525;45.568;5.448;2023-03-09T14:58:48;6.20;;;2.30;;
28266;SDS011;15525;45.568;5.448;2023-03-09T15:01:13;5.65;;;2.28;;
28266;SDS011;15525;45.568;5.448;2023-03-09T15:03:39;4.53;;;1.77;;
28266;SDS011;15525;45.568;5.448;2023-03-09T15:06:05;4.65;;;2.17;;
28266;SDS011;15525;45.568;5.448;2023-03-09T15:08:31;4.32;;;1.98;;
28266;SDS011;15525;45.568;5.448;2023-03-09T15:10:57;5.53;;;2.00;;
28266;SDS011;15525;45.568;5.448;2023-03-09T15:13:23;7.28;;;2.10;;
28266;SDS011;15525;45.568;5.448;2023-03-09T15:15:49;6.35;;;1.90;;
28266;SDS011;15525;45.568;5.448;2023-03-09T15:18:14;7.00;;;2.38;;
28266;SDS011;15525;45.568;5.448;2023-03-09T15:20:40;5.60;;;2.17;;
28266;SDS011;15525;45.568;5.448;2023-03-09T15:23:05;5.85;;;1.80;;
28266;SDS011;15525;45.568;5.448;2023-03-09T15:25:30;5.00;;;2.13;;
28266;SDS011;15525;45.568;5.448;2023-03-09T15:27:56;6.15;;;2.13;;
28266;SDS011;15525;45.568;5.448;2023-03-09T15:30:21;5.95;;;2.03;;
28266;SDS011;15525;45.568;5.448;2023-03-09T15:32:47;5.22;;;2.13;;
28266;SDS011;15525;45.568;5.448;2023-03-09T15:35:17;4.72;;;1.52;;
28266;SDS011;15525;45.568;5.448;2023-03-09T15:37:43;5.65;;;2.10;;
28266;SDS011;15525;45.568;5.448;2023-03-09T15:40:11;5.55;;;1.77;;
28266;SDS011;15525;45.568;5.448;2023-03-09T15:42:38;4.78;;;1.80;;
28266;SDS011;15525;45.568;5.448;2023-03-09T15:45:07;5.60;;;1.60;;
28266;SDS011;15525;45.568;5.448;2023-03-09T15:47:34;5.68;;;1.77;;
28266;SDS011;15525;45.568;5.448;2023-03-09T15:49:59;4.60;;;1.63;;
28266;SDS011;15525;45.568;5.448;2023-03-09T15:52:25;4.32;;;1.73;;
28266;SDS011;15525;45.568;5.448;2023-03-09T15:54:51;3.63;;;2.33;;
28266;SDS011;15525;45.568;5.448;2023-03-09T15:57:16;6.50;;;2.75;;
28266;SDS011;15525;45.568;5.448;2023-03-09T15:59:42;6.55;;;2.45;;
28266;SDS011;15525;45.568;5.448;2023-03-09T16:02:08;8.00;;;2.40;;
28266;SDS011;15525;45.568;5.448;2023-03-09T16:04:35;5.88;;;1.95;;
28266;SDS011;15525;45.568;5.448;2023-03-09T16:07:00;3.92;;;1.77;;
28266;SDS011;15525;45.568;5.448;2023-03-09T16:09:25;5.07;;;1.80;;